Time;durP1;ratioP1;P1;durP2;ratioP2;P2;SDS_P1;SDS_P2;PMS_P1;PMS_P2;Temp;Humidity;BMP_temperature;BMP_pressure;BME280_temperature;BME280_humidity;BME280_pressure;Samples;Min_cycle;Max_cycle;Signal;HPM_P1;HPM_P2
2023/04/21 00:01:33;;;;;;;27.00;18.77;;;;;;;;;;4950201;28;20101;-70
2023/04/21 00:04:00;;;;;;;31.70;20.15;;;;;;;;;;4955281;28;20101;-70
2023/04/21 00:06:27;;;;;;;32.72;19.52;;;;;;;;;;4952758;28;20091;-71
2023/04/21 00:08:53;;;;;;;30.85;19.58;;;;;;;;;;4959714;28;20512;-70
2023/04/21 00:11:19;;;;;;;32.65;19.63;;;;;;;;;;4957465;28;20058;-72
2023/04/21 00:13:45;;;;;;;26.55;17.60;;;9.30;99.90;;;;;;4964625;28;20114;-70
2023/04/21 00:16:11;;;;;;;30.33;18.88;;;;;;;;;;4957315;28;20074;-70
2023/04/21 00:18:37;;;;;;;26.25;17.70;;;;;;;;;;4960749;28;20047;-70
2023/04/21 00:21:04;;;;;;;32.20;18.52;;;;;;;;;;4951239;28;20043;-70
2023/04/21 00:23:30;;;;;;;27.52;17.80;;;;;;;;;;4947592;28;20101;-70
2023/04/21 00:25:56;;;;;;;30.60;18.15;;;;;;;;;;4952891;28;20051;-70
2023/04/21 00:28:22;;;;;;;24.80;16.08;;;;;;;;;;4935233;28;20050;-71
2023/04/21 00:30:48;;;;;;;32.53;17.30;;;;;;;;;;4949167;28;20134;-70
2023/04/21 00:33:14;;;;;;;26.70;15.82;;;;;;;;;;4951053;28;20118;-70
2023/04/21 00:35:40;;;;;;;29.40;16.25;;;;;;;;;;4955638;28;20105;-70
2023/04/21 00:38:06;;;;;;;23.80;16.58;;;;;;;;;;4959809;28;20122;-71
2023/04/21 00:40:32;;;;;;;26.95;15.90;;;;;;;;;;4947757;28;20584;-70
2023/04/21 00:42:58;;;;;;;23.02;15.15;;;;;;;;;;4946367;28;20058;-71
2023/04/21 00:45:24;;;;;;;23.40;15.50;;;;;;;;;;4949658;28;20142;-70
2023/04/21 00:47:51;;;;;;;21.75;14.82;;;;;;;;;;4948618;28;20051;-71
2023/04/21 00:50:17;;;;;;;25.95;15.00;;;;;;;;;;4954858;28;20476;-70
2023/04/21 00:52:45;;;;;;;24.25;14.55;;;;;;;;;;4959579;28;20062;-70
2023/04/21 00:55:12;;;;;;;24.58;14.95;;;;;;;;;;4957858;28;20073;-70
2023/04/21 00:57:38;;;;;;;25.77;14.02;;;;;;;;;;4958477;28;20059;-71
2023/04/21 01:00:05;;;;;;;25.63;15.35;;;;;;;;;;4955961;28;20061;-70
2023/04/21 01:02:31;;;;;;;25.75;15.10;;;;;;;;;;4954561;28;20063;-71
2023/04/21 01:04:57;;;;;;;22.40;14.43;;;;;;;;;;4955266;28;20599;-70
2023/04/21 01:07:24;;;;;;;20.67;13.07;;;;;;;;;;4948405;28;20085;-70
2023/04/21 01:09:50;;;;;;;22.98;14.77;;;;;;;;;;4947991;28;20877;-70
2023/04/21 01:12:16;;;;;;;27.20;15.43;;;;;;;;;;4953705;28;20700;-70
2023/04/21 01:14:42;;;;;;;24.85;14.65;;;;;;;;;;4951504;28;20054;-70
2023/04/21 01:17:09;;;;;;;23.77;13.45;;;;;;;;;;4955272;28;20078;-70
2023/04/21 01:19:38;;;;;;;24.15;14.43;;;;;;;;;;4953862;28;20043;-71
2023/04/21 01:22:06;;;;;;;20.45;14.55;;;;;;;;;;4950490;28;20467;-70
2023/04/21 01:24:36;;;;;;;24.45;14.57;;;;;;;;;;4960806;28;20089;-70
2023/04/21 01:27:02;;;;;;;24.60;14.27;;;;;;;;;;4953703;28;20042;-70
2023/04/21 01:29:31;;;;;;;23.08;12.80;;;;;;;;;;4960263;28;20045;-73
2023/04/21 01:31:57;;;;;;;24.33;14.35;;;;;;;;;;4956959;28;20054;-71
2023/04/21 01:34:23;;;;;;;22.40;13.02;;;;;;;;;;4948927;28;20050;-70
2023/04/21 01:36:49;;;;;;;23.80;13.98;;;;;;;;;;4952077;28;20118;-70
2023/04/21 01:39:15;;;;;;;19.92;13.88;;;;;;;;;;4947023;28;20409;-70
2023/04/21 01:41:41;;;;;;;21.10;13.70;;;;;;;;;;4962190;28;20042;-70
2023/04/21 01:44:07;;;;;;;22.50;13.45;;;;;;;;;;4958564;28;20052;-70
2023/04/21 01:46:33;;;;;;;21.48;13.88;;;;;;;;;;4954893;28;20834;-71
2023/04/21 01:48:59;;;;;;;19.77;12.80;;;;;;;;;;4950421;28;20080;-71
2023/04/21 01:51:26;;;;;;;20.73;13.05;;;;;;;;;;4948080;28;20528;-70
2023/04/21 01:53:52;;;;;;;22.10;12.98;;;;;;;;;;4953785;28;20800;-70
2023/04/21 01:56:18;;;;;;;20.45;12.98;;;;;;;;;;4950275;28;20055;-71
2023/04/21 01:58:44;;;;;;;22.88;12.43;;;;;;;;;;4949053;28;20097;-71
2023/04/21 02:01:10;;;;;;;19.60;13.30;;;;;;;;;;4944107;28;20082;-70
2023/04/21 02:03:36;;;;;;;22.92;13.40;;;9.00;99.90;;;;;;4952096;28;20074;-70
2023/04/21 02:06:02;;;;;;;22.85;13.52;;;;;;;;;;4951392;28;20054;-71
2023/04/21 02:08:28;;;;;;;20.65;13.25;;;;;;;;;;4957720;28;20050;-71
2023/04/21 02:10:54;;;;;;;19.90;12.60;;;;;;;;;;4948920;28;20051;-71
2023/04/21 02:13:20;;;;;;;23.40;13.85;;;;;;;;;;4952691;28;20469;-74
2023/04/21 02:15:46;;;;;;;20.08;13.32;;;8.90;99.90;;;;;;4955181;28;20090;-70
2023/04/21 02:18:12;;;;;;;21.88;12.35;;;8.90;99.90;;;;;;4953353;28;20051;-70
2023/04/21 02:20:38;;;;;;;20.50;13.10;;;;;;;;;;4955782;28;20058;-71
2023/04/21 02:23:04;;;;;;;18.90;12.40;;;;;;;;;;4952092;28;20063;-70
2023/04/21 02:25:30;;;;;;;19.52;11.73;;;;;;;;;;4956414;28;20087;-70
2023/04/21 02:27:56;;;;;;;19.85;12.50;;;;;;;;;;4951250;28;20055;-70
2023/04/21 02:30:21;;;;;;;18.85;11.88;;;8.70;99.90;;;;;;4962747;28;20066;-70
2023/04/21 02:32:47;;;;;;;20.00;13.10;;;;;;;;;;4956687;28;20062;-70
2023/04/21 02:35:13;;;;;;;20.77;13.70;;;;;;;;;;4962556;28;20069;-70
2023/04/21 02:37:39;;;;;;;21.88;12.70;;;;;;;;;;4957703;28;20050;-71
2023/04/21 02:40:05;;;;;;;16.73;11.77;;;;;;;;;;4957364;28;20054;-70
2023/04/21 02:42:34;;;;;;;25.13;13.43;;;;;;;;;;4954711;28;20553;-72
2023/04/21 02:45:00;;;;;;;21.50;13.85;;;8.70;99.90;;;;;;4953619;28;20047;-70
2023/04/21 02:47:26;;;;;;;20.92;11.32;;;;;;;;;;4960537;28;20047;-71
2023/04/21 02:49:52;;;;;;;19.52;11.88;;;;;;;;;;4954309;28;20042;-72
2023/04/21 02:52:18;;;;;;;18.63;13.23;;;;;;;;;;4961732;28;20051;-71
2023/04/21 02:54:43;;;;;;;18.40;11.95;;;8.70;99.90;;;;;;4954814;28;20121;-70
2023/04/21 02:57:09;;;;;;;22.58;12.35;;;;;;;;;;4963531;28;20050;-70
2023/04/21 02:59:35;;;;;;;19.58;12.73;;;;;;;;;;4961848;28;20053;-70
2023/04/21 03:02:01;;;;;;;21.08;12.00;;;;;;;;;;4964309;28;20067;-71
2023/04/21 03:04:27;;;;;;;19.52;11.90;;;;;;;;;;4962129;28;20071;-71
2023/04/21 03:06:54;;;;;;;20.13;12.48;;;;;;;;;;4957451;28;20055;-70
2023/04/21 03:09:20;;;;;;;16.80;12.30;;;;;;;;;;4954516;28;20571;-71
2023/04/21 03:11:45;;;;;;;20.73;12.45;;;8.70;99.90;;;;;;4948956;28;20058;-70
2023/04/21 03:14:11;;;;;;;20.30;12.48;;;;;;;;;;4951302;28;20056;-71
2023/04/21 03:16:37;;;;;;;19.83;12.15;;;;;;;;;;4950844;28;20043;-70
2023/04/21 03:19:03;;;;;;;21.98;12.57;;;;;;;;;;4949873;28;20124;-71
2023/04/21 03:21:30;;;;;;;20.80;12.00;;;;;;;;;;4950893;28;20054;-71
2023/04/21 03:23:56;;;;;;;19.42;12.40;;;;;;;;;;4960201;28;20057;-70
2023/04/21 03:26:22;;;;;;;21.60;12.52;;;;;;;;;;4952691;28;20498;-70
2023/04/21 03:28:48;;;;;;;17.55;12.52;;;;;;;;;;4957783;28;20053;-70
2023/04/21 03:31:14;;;;;;;19.20;12.50;;;;;;;;;;4956723;28;20051;-70
2023/04/21 03:33:40;;;;;;;16.58;11.13;;;;;;;;;;4959750;28;20091;-71
2023/04/21 03:36:06;;;;;;;21.48;12.15;;;;;;;;;;4957048;28;20134;-70
2023/04/21 03:38:32;;;;;;;20.88;12.88;;;;;;;;;;4955275;28;20112;-70
2023/04/21 03:40:58;;;;;;;20.55;11.90;;;;;;;;;;4958252;28;20577;-71
2023/04/21 03:43:24;;;;;;;26.30;12.60;;;;;;;;;;4960033;28;20588;-70
2023/04/21 03:45:50;;;;;;;19.55;12.48;;;;;;;;;;4954273;28;20058;-71
2023/04/21 03:48:16;;;;;;;22.08;12.07;;;;;;;;;;4958051;28;20165;-71
2023/04/21 03:50:42;;;;;;;21.13;11.93;;;;;;;;;;4955789;28;20051;-71
2023/04/21 03:53:08;;;;;;;20.38;9.73;;;;;;;;;;4952498;28;20039;-70
2023/04/21 03:55:34;;;;;;;20.33;12.63;;;;;;;;;;4961826;28;20047;-70
2023/04/21 03:58:00;;;;;;;21.38;12.43;;;;;;;;;;4950634;28;20047;-70
2023/04/21 04:00:26;;;;;;;21.63;12.95;;;;;;;;;;4948463;28;20539;-72
2023/04/21 04:02:52;;;;;;;21.50;12.88;;;;;;;;;;4948151;28;20047;-70
2023/04/21 04:05:17;;;;;;;16.33;11.45;;;8.70;99.90;;;;;;4950199;28;20051;-70
2023/04/21 04:07:44;;;;;;;19.77;12.13;;;;;;;;;;4953792;28;20047;-70
2023/04/21 04:10:10;;;;;;;20.90;13.20;;;;;;;;;;4956698;28;20054;-70
2023/04/21 04:12:37;;;;;;;24.17;14.38;;;;;;;;;;4957510;28;20570;-71
2023/04/21 04:15:03;;;;;;;25.02;14.05;;;;;;;;;;4955067;28;20142;-70
2023/04/21 04:17:28;;;;;;;19.05;12.65;;;8.60;99.90;;;;;;4965500;28;20105;-70
2023/04/21 04:19:54;;;;;;;22.42;12.85;;;;;;;;;;4959464;28;20788;-70
2023/04/21 04:22:20;;;;;;;22.60;12.73;;;;;;;;;;4953055;28;20082;-70
2023/04/21 04:24:46;;;;;;;19.50;13.25;;;;;;;;;;4951490;28;20845;-72
2023/04/21 04:27:13;;;;;;;19.95;12.82;;;;;;;;;;4956122;28;20050;-71
2023/04/21 04:29:39;;;;;;;21.67;12.88;;;8.60;99.90;;;;;;4954847;28;20113;-70
2023/04/21 04:32:08;;;;;;;24.00;12.55;;;;;;;;;;4932938;28;20054;-70
2023/04/21 04:34:36;;;;;;;21.08;13.13;;;8.80;99.90;;;;;;4958398;28;20051;-70
2023/04/21 04:37:03;;;;;;;19.90;12.52;;;;;;;;;;4954984;28;20142;-70
2023/04/21 04:39:28;;;;;;;20.27;12.32;;;8.60;99.90;;;;;;4958127;28;20511;-70
2023/04/21 04:41:54;;;;;;;26.17;14.45;;;;;;;;;;4958861;28;20043;-72
2023/04/21 04:44:22;;;;;;;19.23;11.90;;;;;;;;;;4957107;28;20050;-71
2023/04/21 04:46:48;;;;;;;20.27;13.60;;;;;;;;;;4955577;28;20129;-70
2023/04/21 04:49:14;;;;;;;20.13;13.63;;;8.60;99.90;;;;;;4948265;28;20039;-70
2023/04/21 04:51:40;;;;;;;26.08;13.05;;;;;;;;;;4948964;28;20502;-70
2023/04/21 04:54:06;;;;;;;18.55;13.35;;;;;;;;;;4931616;28;20477;-70
2023/04/21 04:56:32;;;;;;;18.63;12.80;;;;;;;;;;4952437;28;20051;-70
2023/04/21 04:58:57;;;;;;;18.00;12.90;;;8.50;99.90;;;;;;4956028;28;20050;-70
2023/04/21 05:01:28;;;;;;;22.40;13.27;;;;;;;;;;4954825;28;20082;-70
2023/04/21 05:03:54;;;;;;;22.58;14.23;;;8.60;99.90;;;;;;4952275;28;20126;-70
2023/04/21 05:06:20;;;;;;;22.63;13.57;;;;;;;;;;4958238;28;20039;-71
2023/04/21 05:08:46;;;;;;;25.80;13.80;;;;;;;;;;4953535;28;20058;-71
2023/04/21 05:11:12;;;;;;;24.85;13.52;;;;;;;;;;4954416;28;20058;-70
2023/04/21 05:13:38;;;;;;;18.48;11.93;;;8.40;99.90;;;;;;4956009;28;20075;-70
2023/04/21 05:16:04;;;;;;;24.15;12.98;;;;;;;;;;4959159;28;20047;-73
2023/04/21 05:18:30;;;;;;;19.83;12.98;;;;;;;;;;4933488;29;20102;-70
2023/04/21 05:20:56;;;;;;;20.83;12.13;;;;;;;;;;4950922;28;20543;-70
2023/04/21 05:23:22;;;;;;;19.00;12.20;;;;;;;;;;4952938;28;20569;-70
2023/04/21 05:25:49;;;;;;;20.80;12.88;;;;;;;;;;4954048;28;20057;-71
2023/04/21 05:28:15;;;;;;;24.60;13.70;;;;;;;;;;4948540;28;20051;-72
2023/04/21 05:30:41;;;;;;;21.42;12.70;;;;;;;;;;4946464;28;20051;-71
2023/04/21 05:33:08;;;;;;;21.38;12.93;;;;;;;;;;4952174;28;20047;-70
2023/04/21 05:35:34;;;;;;;19.48;11.65;;;;;;;;;;4955666;28;20055;-70
2023/04/21 05:38:00;;;;;;;21.35;12.90;;;;;;;;;;4951039;28;20055;-71
2023/04/21 05:40:26;;;;;;;16.73;12.55;;;;;;;;;;4947317;28;20127;-71
2023/04/21 05:42:52;;;;;;;22.67;11.80;;;;;;;;;;4947331;28;20039;-70
2023/04/21 05:45:18;;;;;;;22.20;11.93;;;;;;;;;;4951338;28;20055;-71
2023/04/21 05:47:44;;;;;;;19.63;12.10;;;;;;;;;;4953568;28;20462;-71
2023/04/21 05:50:10;;;;;;;22.52;13.00;;;;;;;;;;4960492;28;20061;-70
2023/04/21 05:52:36;;;;;;;20.63;11.32;;;;;;;;;;4955896;28;20051;-71
2023/04/21 05:55:03;;;;;;;22.25;11.40;;;;;;;;;;4960064;28;20797;-71
2023/04/21 05:57:29;;;;;;;20.52;11.88;;;;;;;;;;4957609;28;20054;-73
2023/04/21 05:59:55;;;;;;;14.70;10.93;;;;;;;;;;4945966;28;20047;-70
2023/04/21 06:02:21;;;;;;;16.77;10.98;;;;;;;;;;4954859;28;20043;-70
2023/04/21 06:04:47;;;;;;;22.20;10.85;;;;;;;;;;4960500;28;20058;-70
2023/04/21 06:07:13;;;;;;;16.98;10.95;;;;;;;;;;4953518;28;20054;-70
2023/04/21 06:09:40;;;;;;;15.27;10.98;;;10.90;99.90;;;;;;4948652;28;20057;-70
2023/04/21 06:12:06;;;;;;;16.42;10.43;;;11.10;99.90;;;;;;4935820;28;20397;-70
2023/04/21 06:14:32;;;;;;;17.70;9.88;;;;;;;;;;4952946;28;20058;-72
2023/04/21 06:16:58;;;;;;;15.57;9.52;;;;;;;;;;4961365;28;20054;-71
2023/04/21 06:19:24;;;;;;;16.23;10.07;;;;;;;;;;4950546;28;20047;-70
2023/04/21 06:21:50;;;;;;;17.25;9.15;;;;;;;;;;4956297;28;20142;-70
2023/04/21 06:24:23;;;;;;;14.45;9.95;;;12.10;99.90;;;;;;4957150;28;20055;-71
2023/04/21 06:26:49;;;;;;;17.45;9.80;;;;;;;;;;4959023;28;20043;-71
2023/04/21 06:29:15;;;;;;;15.57;9.95;;;;;;;;;;4962474;28;20061;-71
2023/04/21 06:31:41;;;;;;;14.23;9.00;;;;;;;;;;4960246;28;20050;-72
2023/04/21 06:34:06;;;;;;;14.27;8.15;;;12.30;99.90;;;;;;4964094;28;20118;-71
2023/04/21 06:36:32;;;;;;;16.45;9.18;;;;;;;;;;4960181;28;20050;-73
2023/04/21 06:38:58;;;;;;;17.00;8.85;;;;;;;;;;4952724;28;20074;-72
2023/04/21 06:41:24;;;;;;;16.30;9.18;;;11.70;99.90;;;;;;4955715;28;20063;-71
2023/04/21 06:43:50;;;;;;;17.25;10.10;;;;;;;;;;4956826;28;20252;-73
2023/04/21 06:46:15;;;;;;;19.45;9.68;;;11.10;99.90;;;;;;4960293;28;20138;-71
2023/04/21 06:48:41;;;;;;;17.73;9.68;;;;;;;;;;4956937;28;20099;-71
2023/04/21 06:51:07;;;;;;;14.70;9.48;;;11.30;99.90;;;;;;4951733;28;20128;-71
2023/04/21 06:53:33;;;;;;;13.65;8.95;;;;;;;;;;4956950;28;20036;-72
2023/04/21 06:55:59;;;;;;;13.13;9.15;;;;;;;;;;4951237;28;20077;-73
2023/04/21 06:58:25;;;;;;;13.40;8.88;;;12.30;99.90;;;;;;4955407;28;20071;-72
2023/04/21 07:00:51;;;;;;;14.70;9.70;;;;;;;;;;4950969;28;20494;-74
2023/04/21 07:03:16;;;;;;;14.32;8.85;;;11.80;99.90;;;;;;4949878;28;20047;-71
2023/04/21 07:05:42;;;;;;;15.75;9.82;;;11.70;99.90;;;;;;4958031;28;20462;-72
2023/04/21 07:08:08;;;;;;;16.73;8.82;;;;;;;;;;4943331;28;20482;-73
2023/04/21 07:10:34;;;;;;;11.63;9.30;;;;;;;;;;4960255;28;20078;-72
2023/04/21 07:13:00;;;;;;;14.88;10.05;;;;;;;;;;4967842;28;20105;-72
2023/04/21 07:15:26;;;;;;;15.77;10.45;;;;;;;;;;4958620;28;20501;-72
2023/04/21 07:17:52;;;;;;;17.20;8.82;;;;;;;;;;4953591;28;20053;-73
2023/04/21 07:20:18;;;;;;;17.45;9.90;;;;;;;;;;4956012;28;20493;-75
2023/04/21 07:22:44;;;;;;;17.65;9.38;;;;;;;;;;4964631;28;20133;-77
2023/04/21 07:25:11;;;;;;;17.05;10.13;;;;;;;;;;4964260;28;20105;-75
2023/04/21 07:27:37;;;;;;;16.40;10.82;;;;;;;;;;4952747;28;20051;-75
2023/04/21 07:30:04;;;;;;;18.23;9.10;;;;;;;;;;4955135;28;20130;-76
2023/04/21 07:32:30;;;;;;;14.95;8.68;;;;;;;;;;4936115;28;20045;-77
2023/04/21 07:34:56;;;;;;;14.63;9.85;;;;;;;;;;4961106;28;20043;-77
2023/04/21 07:37:22;;;;;;;15.65;9.25;;;;;;;;;;4958020;28;20047;-75
2023/04/21 07:39:47;;;;;;;17.08;10.15;;;11.50;99.90;;;;;;4955926;28;20499;-73
2023/04/21 07:42:13;;;;;;;11.65;7.15;;;;;;;;;;4958659;28;20128;-73
2023/04/21 07:44:39;;;;;;;15.65;8.68;;;;;;;;;;4953757;28;20086;-74
2023/04/21 07:47:05;;;;;;;18.38;8.85;;;;;;;;;;4948108;28;20047;-74
2023/04/21 07:49:31;;;;;;;15.48;9.40;;;;;;;;;;4945623;28;20062;-75
2023/04/21 07:51:57;;;;;;;15.98;9.57;;;11.70;99.90;;;;;;4957288;28;20050;-74
2023/04/21 07:54:23;;;;;;;18.42;9.40;;;;;;;;;;4939896;28;20118;-73
2023/04/21 07:56:49;;;;;;;16.48;10.43;;;;;;;;;;4962244;28;20814;-74
2023/04/21 07:59:15;;;;;;;13.25;8.93;;;;;;;;;;4959925;28;20050;-74
2023/04/21 08:01:41;;;;;;;14.02;7.60;;;;;;;;;;4950318;28;20051;-71
2023/04/21 08:04:07;;;;;;;15.15;9.55;;;;;;;;;;4964628;28;20078;-72
2023/04/21 08:06:33;;;;;;;19.60;10.93;;;12.10;99.90;;;;;;4954091;28;20054;-71
2023/04/21 08:08:59;;;;;;;14.77;9.43;;;;;;;;;;4962521;28;20050;-72
2023/04/21 08:11:25;;;;;;;16.88;10.10;;;12.20;99.90;;;;;;4960278;28;20101;-72
2023/04/21 08:13:51;;;;;;;16.50;9.63;;;;;;;;;;4961580;28;20051;-72
2023/04/21 08:16:17;;;;;;;15.60;9.57;;;;;;;;;;4958774;28;20042;-71
2023/04/21 08:18:43;;;;;;;18.77;10.25;;;;;;;;;;4958924;28;20129;-72
2023/04/21 08:21:09;;;;;;;16.73;9.48;;;;;;;;;;4949316;28;20395;-72
2023/04/21 08:23:35;;;;;;;17.98;10.40;;;;;;;;;;4958909;28;20054;-72
2023/04/21 08:26:02;;;;;;;17.85;10.23;;;;;;;;;;4958401;28;20050;-72
2023/04/21 08:28:28;;;;;;;18.02;9.20;;;;;;;;;;4952605;28;20046;-72
2023/04/21 08:30:54;;;;;;;18.27;9.63;;;;;;;;;;4951413;28;20106;-71
2023/04/21 08:33:20;;;;;;;14.02;9.00;;;;;;;;;;4960376;28;20130;-72
2023/04/21 08:35:46;;;;;;;12.77;9.60;;;;;;;;;;4956253;28;20544;-72
2023/04/21 08:38:12;;;;;;;17.13;10.07;;;;;;;;;;4976322;28;20038;-72
2023/04/21 08:40:38;;;;;;;16.92;9.60;;;13.40;99.90;;;;;;4960918;28;20050;-72
2023/04/21 08:43:05;;;;;;;18.15;10.02;;;13.40;99.90;;;;;;4959078;28;20058;-72
2023/04/21 08:45:32;;;;;;;15.70;10.25;;;13.50;99.90;;;;;;4959642;28;20046;-72
2023/04/21 08:47:59;;;;;;;20.83;11.13;;;;;;;;;;4969617;28;20039;-72
2023/04/21 08:50:28;;;;;;;17.30;10.27;;;13.50;99.90;;;;;;4976690;28;20046;-71
2023/04/21 08:52:54;;;;;;;20.10;10.55;;;;;;;;;;4972525;28;20042;-72
2023/04/21 08:55:28;;;;;;;19.35;10.38;;;13.90;99.90;;;;;;4966105;28;20058;-72
2023/04/21 08:57:54;;;;;;;19.73;9.63;;;;;;;;;;4964813;28;20053;-72
2023/04/21 09:00:20;;;;;;;17.27;10.38;;;14.10;99.90;;;;;;4957854;28;20105;-72
2023/04/21 09:02:57;;;;;;;16.83;8.75;;;14.20;99.90;;;;;;4956984;28;20047;-72
2023/04/21 09:05:28;;;;;;;16.33;9.10;;;14.10;99.90;;;;;;4939947;28;20057;-72
2023/04/21 09:08:15;;;;;;;15.93;10.85;;;13.80;99.90;;;;;;4953941;28;20043;-72
2023/04/21 09:10:49;;;;;;;19.10;9.95;;;14.40;99.90;;;;;;4958695;28;20114;-72
2023/04/21 09:13:17;;;;;;;20.02;11.00;;;14.10;99.90;;;;;;4955516;28;20043;-72
2023/04/21 09:15:45;;;;;;;20.95;10.20;;;13.90;99.90;;;;;;4976112;28;20057;-72
2023/04/21 09:18:21;;;;;;;15.77;9.30;;;14.30;99.90;;;;;;4953412;28;20085;-72
2023/04/21 09:20:48;;;;;;;14.57;9.70;;;14.20;99.90;;;;;;4953739;28;20054;-72
2023/04/21 09:23:14;;;;;;;14.38;9.95;;;;;;;;;;4964653;28;20173;-72
2023/04/21 09:25:44;;;;;;;16.77;9.65;;;14.40;99.90;;;;;;4961033;28;20093;-72
2023/04/21 09:28:12;;;;;;;13.98;9.48;;;14.60;99.90;;;;;;4965425;28;20046;-72
2023/04/21 09:30:41;;;;;;;15.75;9.65;;;14.80;99.90;;;;;;4964342;28;20058;-72
2023/04/21 09:33:14;;;;;;;16.70;9.95;;;14.60;99.90;;;;;;4971781;28;20106;-72
2023/04/21 09:35:40;;;;;;;12.13;7.68;;;14.80;99.90;;;;;;4957538;28;20489;-72
2023/04/21 09:38:11;;;;;;;19.55;10.00;;;14.60;99.90;;;;;;4962979;28;20073;-72
2023/04/21 09:40:37;;;;;;;15.50;9.40;;;;;;;;;;4960449;28;20093;-73
2023/04/21 09:43:03;;;;;;;14.90;8.85;;;;;;;;;;4962640;28;20347;-72
2023/04/21 09:45:29;;;;;;;22.17;10.02;;;;;;;;;;4959465;28;20505;-72
2023/04/21 09:47:59;;;;;;;19.83;9.40;;;15.30;99.90;;;;;;4962997;28;20082;-72
2023/04/21 09:50:26;;;;;;;18.10;10.20;;;15.50;99.90;;;;;;4959483;28;20138;-72
2023/04/21 09:52:53;;;;;;;12.88;8.10;;;15.50;99.90;;;;;;4966614;28;20042;-72
2023/04/21 09:55:25;;;;;;;15.32;9.68;;;15.70;99.90;;;;;;4968809;28;20046;-72
2023/04/21 09:57:56;;;;;;;18.65;9.55;;;15.80;99.90;;;;;;4966006;28;20103;-73
2023/04/21 10:00:27;;;;;;;16.52;8.93;;;16.00;99.90;;;;;;4964333;28;20085;-73
2023/04/21 10:02:53;;;;;;;12.98;8.43;;;16.20;99.90;;;;;;4962775;28;20094;-72
2023/04/21 10:05:19;;;;;;;15.90;9.68;;;;;;;;;;4962851;28;20050;-73
2023/04/21 10:07:46;;;;;;;17.52;9.15;;;16.50;99.90;;;;;;4959118;28;20497;-73
2023/04/21 10:10:34;;;;;;;17.52;9.15;;;16.50;99.90;;;;;;4954519;28;20117;-72
2023/04/21 10:13:01;;;;;;;15.98;8.93;;;16.60;99.90;;;;;;4958500;28;20520;-72
2023/04/21 10:15:38;;;;;;;15.10;7.65;;;16.70;99.90;;;;;;4961745;28;20043;-72
2023/04/21 10:18:22;;;;;;;16.13;8.18;;;16.70;99.90;;;;;;4968242;28;20042;-72
2023/04/21 10:20:59;;;;;;;16.70;9.52;;;16.30;99.90;;;;;;4942171;28;20579;-72
2023/04/21 10:23:42;;;;;;;12.82;7.60;;;16.20;99.90;;;;;;4955455;28;20067;-72
2023/04/21 10:26:21;;;;;;;11.55;8.48;;;16.30;99.90;;;;;;4980644;28;20054;-73
2023/04/21 10:28:47;;;;;;;13.32;8.93;;;;;;;;;;4962059;28;20058;-72
2023/04/21 10:31:21;;;;;;;16.77;9.40;;;17.10;99.90;;;;;;4958283;28;20102;-72
2023/04/21 10:34:05;;;;;;;15.18;8.82;;;17.10;99.90;;;;;;4961559;28;20078;-72
2023/04/21 10:36:33;;;;;;;15.40;9.13;;;;;;;;;;4971195;28;20177;-72
2023/04/21 10:39:02;;;;;;;13.15;9.02;;;17.30;99.90;;;;;;4957643;28;20039;-72
2023/04/21 10:41:33;;;;;;;13.23;7.75;;;17.10;99.90;;;;;;4956175;28;20823;-72
2023/04/21 10:44:15;;;;;;;16.52;8.23;;;17.30;99.90;;;;;;4956719;28;20106;-73
2023/04/21 10:46:49;;;;;;;17.52;9.45;;;17.00;99.90;;;;;;4953919;28;20046;-72
2023/04/21 10:49:29;;;;;;;17.73;9.20;;;16.60;99.90;;;;;;4946858;28;20131;-72
2023/04/21 10:51:58;;;;;;;14.73;8.48;;;16.70;99.90;;;;;;4963706;28;20463;-72
2023/04/21 10:54:25;;;;;;;18.80;9.18;;;16.60;99.90;;;;;;4962461;28;20042;-73
2023/04/21 10:56:52;;;;;;;13.13;6.72;;;16.50;99.90;;;;;;4957256;28;20055;-72
2023/04/21 10:59:18;;;;;;;18.13;9.25;;;16.50;99.90;;;;;;4960745;28;20053;-72
2023/04/21 11:01:44;;;;;;;16.27;10.15;;;16.70;99.90;;;;;;4965332;28;20050;-72
2023/04/21 11:04:20;;;;;;;15.20;8.90;;;16.80;99.90;;;;;;4956046;28;20035;-72
2023/04/21 11:07:09;;;;;;;12.23;8.73;;;17.00;99.90;;;;;;4964040;28;20078;-73
2023/04/21 11:09:36;;;;;;;13.98;8.40;;;16.90;99.90;;;;;;4959903;28;20054;-72
2023/04/21 11:12:06;;;;;;;17.67;10.15;;;16.90;99.90;;;;;;4959309;28;20051;-72
2023/04/21 11:14:32;;;;;;;18.10;9.30;;;;;;;;;;4953312;28;20059;-73
2023/04/21 11:16:58;;;;;;;14.75;7.75;;;17.20;99.90;;;;;;4957098;28;20053;-72
2023/04/21 11:19:24;;;;;;;15.52;10.15;;;;;;;;;;4962143;28;20043;-73
2023/04/21 11:21:52;;;;;;;13.40;8.68;;;17.40;99.90;;;;;;4954945;28;20059;-73
2023/04/21 11:24:19;;;;;;;13.25;8.48;;;17.40;99.90;;;;;;4967001;28;20043;-72
2023/04/21 11:26:45;;;;;;;16.15;9.57;;;17.60;99.90;;;;;;4958339;28;20413;-73
2023/04/21 11:29:11;;;;;;;13.75;8.90;;;;;;;;;;4959920;28;20042;-74
2023/04/21 11:31:39;;;;;;;16.92;9.35;;;17.70;99.90;;;;;;4967779;28;20589;-73
2023/04/21 11:34:06;;;;;;;14.18;9.65;;;17.60;99.90;;;;;;4962126;28;20046;-72
2023/04/21 11:36:36;;;;;;;16.05;10.18;;;17.50;99.90;;;;;;4962044;28;20049;-72
2023/04/21 11:39:10;;;;;;;17.58;9.15;;;17.50;99.90;;;;;;4959417;28;20043;-73
2023/04/21 11:41:40;;;;;;;16.52;9.65;;;17.70;99.90;;;;;;4958964;28;20046;-72
2023/04/21 11:44:06;;;;;;;18.08;8.45;;;;;;;;;;4959681;28;20693;-73
2023/04/21 11:46:32;;;;;;;14.50;7.30;;;;;;;;;;4957979;28;20051;-73
2023/04/21 11:48:58;;;;;;;13.93;8.52;;;;;;;;;;4963596;28;20225;-73
2023/04/21 11:51:24;;;;;;;12.52;7.55;;;18.30;99.90;;;;;;4960501;28;20439;-73
2023/04/21 11:53:49;;;;;;;14.85;7.03;;;18.50;99.90;;;;;;4963340;28;20042;-72
2023/04/21 11:56:20;;;;;;;12.48;7.82;;;18.50;99.90;;;;;;4964222;28;20450;-73
2023/04/21 11:58:48;;;;;;;11.57;7.78;;;18.60;99.90;;;;;;4958714;28;20043;-73
2023/04/21 12:01:15;;;;;;;9.15;6.45;;;18.40;99.90;;;;;;4956927;28;20057;-73
2023/04/21 12:03:40;;;;;;;12.50;7.78;;;18.30;99.90;;;;;;4961960;28;20386;-72
2023/04/21 12:06:06;;;;;;;15.63;8.38;;;18.20;99.90;;;;;;4955165;28;20043;-72
2023/04/21 12:08:33;;;;;;;10.57;6.75;;;;;;;;;;4962381;28;20063;-74
2023/04/21 12:11:01;;;;;;;15.30;6.75;;;18.50;99.90;;;;;;4959358;28;20581;-72
2023/04/21 12:13:27;;;;;;;11.73;6.93;;;18.50;99.90;;;;;;4965832;28;20051;-73
2023/04/21 12:15:53;;;;;;;14.57;6.68;;;;;;;;;;4958570;28;20445;-73
2023/04/21 12:18:19;;;;;;;10.50;5.40;;;18.30;99.90;;;;;;4956939;28;20089;-72
2023/04/21 12:20:51;;;;;;;12.30;6.70;;;18.10;99.90;;;;;;4954195;28;20053;-73
2023/04/21 12:23:17;;;;;;;12.68;6.97;;;17.90;99.90;;;;;;4954495;28;20046;-73
2023/04/21 12:25:45;;;;;;;9.25;5.38;;;17.90;99.90;;;;;;4958321;28;20388;-73
2023/04/21 12:28:11;;;;;;;11.13;5.88;;;;;;;;;;4954985;28;20074;-73
2023/04/21 12:30:37;;;;;;;11.98;6.07;;;18.20;99.90;;;;;;4964221;28;20062;-73
2023/04/21 12:33:02;;;;;;;14.70;6.13;;;18.20;99.90;;;;;;4952741;28;20482;-72
2023/04/21 12:35:29;;;;;;;10.95;5.47;;;18.30;99.90;;;;;;4943756;28;20481;-73
2023/04/21 12:37:55;;;;;;;10.18;6.10;;;18.40;99.90;;;;;;4956224;28;20067;-73
2023/04/21 12:40:20;;;;;;;12.68;5.53;;;18.40;99.90;;;;;;4960686;28;20086;-72
2023/04/21 12:42:47;;;;;;;14.23;5.53;;;18.40;99.90;;;;;;4962590;28;20035;-73
2023/04/21 12:45:13;;;;;;;11.77;5.57;;;18.40;99.90;;;;;;4962992;28;20043;-73
2023/04/21 12:47:40;;;;;;;16.75;6.03;;;;;;;;;;4961656;28;20501;-72
2023/04/21 12:50:07;;;;;;;13.77;6.70;;;18.60;99.90;;;;;;4971824;28;20058;-72
2023/04/21 12:52:33;;;;;;;10.95;6.80;;;;;;;;;;4966025;28;20683;-73
2023/04/21 12:54:59;;;;;;;12.75;6.25;;;18.40;99.90;;;;;;4962470;28;20050;-73
2023/04/21 12:57:24;;;;;;;13.63;6.53;;;18.50;99.90;;;;;;4963467;28;20055;-73
2023/04/21 12:59:50;;;;;;;15.70;6.05;;;18.50;99.90;;;;;;4958210;28;20058;-73
2023/04/21 13:02:15;;;;;;;11.40;6.68;;;18.50;99.90;;;;;;4961785;28;20089;-72
2023/04/21 13:04:41;;;;;;;12.52;5.93;;;18.60;99.90;;;;;;4965321;28;20054;-73
2023/04/21 13:07:07;;;;;;;8.10;5.85;;;18.60;99.90;;;;;;4966349;28;20039;-73
2023/04/21 13:09:33;;;;;;;11.40;6.07;;;18.70;99.90;;;;;;4955114;28;20121;-73
2023/04/21 13:11:58;;;;;;;12.98;6.25;;;18.80;99.90;;;;;;4955651;28;20042;-73
2023/04/21 13:14:24;;;;;;;13.63;7.00;;;18.90;99.90;;;;;;4958855;28;20059;-72
2023/04/21 13:16:50;;;;;;;11.48;6.50;;;18.80;99.90;;;;;;4959967;28;20600;-73
2023/04/21 13:19:15;;;;;;;11.38;5.68;;;18.90;99.90;;;;;;4950027;28;20603;-73
2023/04/21 13:21:41;;;;;;;10.75;5.63;;;19.00;99.90;;;;;;4952528;28;20109;-72
2023/04/21 13:24:06;;;;;;;10.60;6.57;;;18.80;99.90;;;;;;4962440;28;20134;-72
2023/04/21 13:26:33;;;;;;;10.52;6.18;;;18.80;99.90;;;;;;4962640;28;20051;-72
2023/04/21 13:29:00;;;;;;;11.45;6.20;;;18.60;99.90;;;;;;4961249;28;20051;-72
2023/04/21 13:31:25;;;;;;;10.95;6.38;;;18.50;99.90;;;;;;4959925;28;20047;-72
2023/04/21 13:33:51;;;;;;;12.57;7.80;;;18.50;99.90;;;;;;4953901;28;20457;-73
2023/04/21 13:36:17;;;;;;;17.02;6.80;;;18.50;99.90;;;;;;4957687;28;21596;-72